Terminal Aerodrome Forecast
Issued by NWS

Home | Current Version | Previous Version | Text Only | Print | Product List | Glossary On
Versions: 1 2 3 4 5 6 7 8 9 10 11 12 13 14 15 16 17 18 19 20 21 22 23 24 25 26 27 28
415
FTUS44 KLIX 031728
TAFHDC
TAF
KHDC 031728Z 0318/0418 09012KT P6SM VCSH OVC050
      TEMPO 0321/0401 4SM RA OVC025
     FM040500 11009KT P6SM SHRA OVC025
     FM040700 11007KT P6SM SHRA OVC010
     FM040900 10006KT 6SM SHRA BR OVC008
     FM041700 18004KT 6SM SHRA BR OVC008=

USA.gov is the U.S. government's official web portal to all federal, state and local government web resources and services.